sensor_id;sensor_type;location;lat;lon;timestamp;P1;durP1;ratioP1;P2;durP2;ratioP2
9720;SDS011;4899;42.644;23.366;2022-12-07T00:02:14;49.57;;;31.80;;
9720;SDS011;4899;42.644;23.366;2022-12-07T00:04:39;40.03;;;30.60;;
9720;SDS011;4899;42.644;23.366;2022-12-07T00:07:05;38.30;;;25.80;;
9720;SDS011;4899;42.644;23.366;2022-12-07T00:09:30;45.20;;;32.10;;
9720;SDS011;4899;42.644;23.366;2022-12-07T00:11:56;41.57;;;30.33;;
9720;SDS011;4899;42.644;23.366;2022-12-07T00:14:21;40.47;;;28.27;;
9720;SDS011;4899;42.644;23.366;2022-12-07T00:16:48;39.17;;;27.37;;
9720;SDS011;4899;42.644;23.366;2022-12-07T00:19:15;36.13;;;27.33;;
9720;SDS011;4899;42.644;23.366;2022-12-07T00:21:41;37.23;;;26.50;;
9720;SDS011;4899;42.644;23.366;2022-12-07T00:24:08;36.70;;;26.77;;
9720;SDS011;4899;42.644;23.366;2022-12-07T00:26:35;37.03;;;26.00;;
9720;SDS011;4899;42.644;23.366;2022-12-07T00:29:06;36.77;;;25.37;;
9720;SDS011;4899;42.644;23.366;2022-12-07T00:31:36;38.03;;;26.80;;
9720;SDS011;4899;42.644;23.366;2022-12-07T00:34:06;34.40;;;26.83;;
9720;SDS011;4899;42.644;23.366;2022-12-07T00:36:32;37.63;;;25.17;;
9720;SDS011;4899;42.644;23.366;2022-12-07T00:38:58;35.47;;;25.77;;
9720;SDS011;4899;42.644;23.366;2022-12-07T00:41:25;33.27;;;26.13;;
9720;SDS011;4899;42.644;23.366;2022-12-07T00:43:52;36.43;;;24.53;;
9720;SDS011;4899;42.644;23.366;2022-12-07T00:46:18;35.53;;;25.47;;
9720;SDS011;4899;42.644;23.366;2022-12-07T00:48:45;36.77;;;25.80;;
9720;SDS011;4899;42.644;23.366;2022-12-07T00:51:12;36.73;;;26.77;;
9720;SDS011;4899;42.644;23.366;2022-12-07T00:53:38;40.47;;;26.40;;
9720;SDS011;4899;42.644;23.366;2022-12-07T00:56:08;37.27;;;26.17;;
9720;SDS011;4899;42.644;23.366;2022-12-07T00:58:36;43.43;;;27.57;;
9720;SDS011;4899;42.644;23.366;2022-12-07T01:01:02;38.13;;;29.23;;
9720;SDS011;4899;42.644;23.366;2022-12-07T01:03:29;40.93;;;27.47;;
9720;SDS011;4899;42.644;23.366;2022-12-07T01:05:54;48.13;;;33.23;;
9720;SDS011;4899;42.644;23.366;2022-12-07T01:08:21;51.87;;;35.00;;
9720;SDS011;4899;42.644;23.366;2022-12-07T01:10:47;48.67;;;34.77;;
9720;SDS011;4899;42.644;23.366;2022-12-07T01:13:13;51.73;;;34.50;;
9720;SDS011;4899;42.644;23.366;2022-12-07T01:15:40;53.33;;;35.80;;
9720;SDS011;4899;42.644;23.366;2022-12-07T01:18:06;48.33;;;35.53;;
9720;SDS011;4899;42.644;23.366;2022-12-07T01:20:31;44.13;;;32.70;;
9720;SDS011;4899;42.644;23.366;2022-12-07T01:22:57;52.57;;;34.33;;
9720;SDS011;4899;42.644;23.366;2022-12-07T01:25:22;55.43;;;34.10;;
9720;SDS011;4899;42.644;23.366;2022-12-07T01:27:48;54.67;;;35.23;;
9720;SDS011;4899;42.644;23.366;2022-12-07T01:30:13;49.43;;;33.20;;
9720;SDS011;4899;42.644;23.366;2022-12-07T01:32:39;47.57;;;30.60;;
9720;SDS011;4899;42.644;23.366;2022-12-07T01:35:04;39.77;;;26.87;;
9720;SDS011;4899;42.644;23.366;2022-12-07T01:37:33;48.40;;;31.07;;
9720;SDS011;4899;42.644;23.366;2022-12-07T01:40:00;49.27;;;33.10;;
9720;SDS011;4899;42.644;23.366;2022-12-07T01:42:26;48.87;;;34.40;;
9720;SDS011;4899;42.644;23.366;2022-12-07T01:47:47;51.03;;;34.67;;
9720;SDS011;4899;42.644;23.366;2022-12-07T01:50:17;54.83;;;35.03;;
9720;SDS011;4899;42.644;23.366;2022-12-07T01:52:44;49.10;;;34.83;;
9720;SDS011;4899;42.644;23.366;2022-12-07T01:55:14;52.17;;;34.57;;
9720;SDS011;4899;42.644;23.366;2022-12-07T01:57:41;49.57;;;35.27;;
9720;SDS011;4899;42.644;23.366;2022-12-07T02:00:10;52.17;;;34.07;;
9720;SDS011;4899;42.644;23.366;2022-12-07T02:02:37;50.90;;;34.67;;
9720;SDS011;4899;42.644;23.366;2022-12-07T02:05:08;50.97;;;34.20;;
9720;SDS011;4899;42.644;23.366;2022-12-07T02:07:34;47.33;;;33.87;;
9720;SDS011;4899;42.644;23.366;2022-12-07T02:10:12;52.00;;;33.87;;
9720;SDS011;4899;42.644;23.366;2022-12-07T02:12:41;55.63;;;34.87;;
9720;SDS011;4899;42.644;23.366;2022-12-07T02:15:10;52.63;;;34.17;;
9720;SDS011;4899;42.644;23.366;2022-12-07T02:28:12;47.27;;;32.80;;
9720;SDS011;4899;42.644;23.366;2022-12-07T02:30:52;53.33;;;34.07;;
9720;SDS011;4899;42.644;23.366;2022-12-07T02:33:28;51.10;;;34.63;;
9720;SDS011;4899;42.644;23.366;2022-12-07T02:41:11;51.77;;;33.83;;
9720;SDS011;4899;42.644;23.366;2022-12-07T02:43:42;48.53;;;34.47;;
9720;SDS011;4899;42.644;23.366;2022-12-07T02:46:13;52.13;;;33.80;;
9720;SDS011;4899;42.644;23.366;2022-12-07T02:48:42;56.87;;;34.97;;
9720;SDS011;4899;42.644;23.366;2022-12-07T02:51:08;55.30;;;33.37;;
9720;SDS011;4899;42.644;23.366;2022-12-07T02:53:35;49.07;;;34.00;;
9720;SDS011;4899;42.644;23.366;2022-12-07T02:56:03;48.33;;;34.07;;
9720;SDS011;4899;42.644;23.366;2022-12-07T03:03:39;50.13;;;33.17;;
9720;SDS011;4899;42.644;23.366;2022-12-07T03:06:22;45.63;;;30.73;;
9720;SDS011;4899;42.644;23.366;2022-12-07T03:11:47;45.53;;;31.10;;
9720;SDS011;4899;42.644;23.366;2022-12-07T03:14:22;48.03;;;30.50;;
9720;SDS011;4899;42.644;23.366;2022-12-07T03:16:53;48.73;;;31.13;;
9720;SDS011;4899;42.644;23.366;2022-12-07T03:19:25;45.87;;;30.50;;
9720;SDS011;4899;42.644;23.366;2022-12-07T03:22:03;45.13;;;29.87;;
9720;SDS011;4899;42.644;23.366;2022-12-07T03:24:35;49.87;;;31.07;;
9720;SDS011;4899;42.644;23.366;2022-12-07T03:27:06;50.70;;;33.40;;
9720;SDS011;4899;42.644;23.366;2022-12-07T03:29:37;49.33;;;33.23;;
9720;SDS011;4899;42.644;23.366;2022-12-07T03:32:20;48.73;;;33.50;;
9720;SDS011;4899;42.644;23.366;2022-12-07T03:34:56;49.60;;;33.23;;
9720;SDS011;4899;42.644;23.366;2022-12-07T03:37:54;50.27;;;32.80;;
9720;SDS011;4899;42.644;23.366;2022-12-07T03:40:34;50.70;;;32.50;;
9720;SDS011;4899;42.644;23.366;2022-12-07T03:43:04;51.23;;;34.53;;
9720;SDS011;4899;42.644;23.366;2022-12-07T03:50:33;55.73;;;34.07;;
9720;SDS011;4899;42.644;23.366;2022-12-07T03:53:12;48.63;;;31.40;;
9720;SDS011;4899;42.644;23.366;2022-12-07T03:55:43;53.67;;;36.40;;
9720;SDS011;4899;42.644;23.366;2022-12-07T03:58:15;50.53;;;33.10;;
9720;SDS011;4899;42.644;23.366;2022-12-07T04:00:44;49.10;;;32.03;;
9720;SDS011;4899;42.644;23.366;2022-12-07T04:03:10;53.20;;;32.77;;
9720;SDS011;4899;42.644;23.366;2022-12-07T04:05:35;49.17;;;32.67;;
9720;SDS011;4899;42.644;23.366;2022-12-07T04:08:01;53.87;;;32.03;;
9720;SDS011;4899;42.644;23.366;2022-12-07T04:10:27;50.40;;;33.43;;
9720;SDS011;4899;42.644;23.366;2022-12-07T04:12:53;53.57;;;33.23;;
9720;SDS011;4899;42.644;23.366;2022-12-07T04:15:18;51.03;;;34.40;;
9720;SDS011;4899;42.644;23.366;2022-12-07T04:17:44;49.80;;;34.03;;
9720;SDS011;4899;42.644;23.366;2022-12-07T04:20:09;51.20;;;33.67;;
9720;SDS011;4899;42.644;23.366;2022-12-07T04:22:35;45.47;;;32.93;;
9720;SDS011;4899;42.644;23.366;2022-12-07T04:25:01;53.07;;;38.03;;
9720;SDS011;4899;42.644;23.366;2022-12-07T04:27:26;46.90;;;31.90;;
9720;SDS011;4899;42.644;23.366;2022-12-07T04:29:52;44.50;;;30.37;;
9720;SDS011;4899;42.644;23.366;2022-12-07T04:32:20;47.23;;;30.73;;
9720;SDS011;4899;42.644;23.366;2022-12-07T04:34:45;48.17;;;30.33;;
9720;SDS011;4899;42.644;23.366;2022-12-07T04:37:11;44.47;;;30.27;;
9720;SDS011;4899;42.644;23.366;2022-12-07T04:39:38;40.73;;;27.67;;
9720;SDS011;4899;42.644;23.366;2022-12-07T04:42:04;50.67;;;30.77;;
9720;SDS011;4899;42.644;23.366;2022-12-07T04:44:29;48.87;;;31.40;;
9720;SDS011;4899;42.644;23.366;2022-12-07T04:46:55;44.60;;;30.20;;
9720;SDS011;4899;42.644;23.366;2022-12-07T04:49:22;45.23;;;31.37;;
9720;SDS011;4899;42.644;23.366;2022-12-07T04:51:48;50.50;;;35.83;;
9720;SDS011;4899;42.644;23.366;2022-12-07T04:54:14;41.40;;;29.37;;
9720;SDS011;4899;42.644;23.366;2022-12-07T04:56:41;41.83;;;29.77;;
9720;SDS011;4899;42.644;23.366;2022-12-07T04:59:07;42.77;;;27.57;;
9720;SDS011;4899;42.644;23.366;2022-12-07T05:01:33;43.00;;;29.03;;
9720;SDS011;4899;42.644;23.366;2022-12-07T05:03:59;43.37;;;30.23;;
9720;SDS011;4899;42.644;23.366;2022-12-07T05:06:25;41.17;;;28.90;;
9720;SDS011;4899;42.644;23.366;2022-12-07T05:08:50;45.43;;;29.90;;
9720;SDS011;4899;42.644;23.366;2022-12-07T05:11:16;39.63;;;27.20;;
9720;SDS011;4899;42.644;23.366;2022-12-07T05:14:00;48.70;;;30.30;;
9720;SDS011;4899;42.644;23.366;2022-12-07T05:16:27;46.40;;;28.43;;
9720;SDS011;4899;42.644;23.366;2022-12-07T05:18:53;40.10;;;27.90;;
9720;SDS011;4899;42.644;23.366;2022-12-07T05:21:19;43.70;;;29.37;;
9720;SDS011;4899;42.644;23.366;2022-12-07T05:23:44;48.77;;;31.73;;
9720;SDS011;4899;42.644;23.366;2022-12-07T05:26:10;54.40;;;36.03;;
9720;SDS011;4899;42.644;23.366;2022-12-07T05:28:35;53.17;;;33.03;;
9720;SDS011;4899;42.644;23.366;2022-12-07T05:31:01;60.83;;;37.27;;
9720;SDS011;4899;42.644;23.366;2022-12-07T05:33:27;54.77;;;32.03;;
9720;SDS011;4899;42.644;23.366;2022-12-07T05:35:52;47.80;;;30.57;;
9720;SDS011;4899;42.644;23.366;2022-12-07T05:38:18;48.77;;;32.67;;
9720;SDS011;4899;42.644;23.366;2022-12-07T05:40:43;52.67;;;36.63;;
9720;SDS011;4899;42.644;23.366;2022-12-07T05:43:08;45.73;;;30.60;;
9720;SDS011;4899;42.644;23.366;2022-12-07T05:45:34;47.67;;;31.20;;
9720;SDS011;4899;42.644;23.366;2022-12-07T05:47:59;44.50;;;31.30;;
9720;SDS011;4899;42.644;23.366;2022-12-07T05:50:25;47.67;;;31.23;;
9720;SDS011;4899;42.644;23.366;2022-12-07T05:52:50;43.53;;;30.07;;
9720;SDS011;4899;42.644;23.366;2022-12-07T05:55:15;46.50;;;29.73;;
9720;SDS011;4899;42.644;23.366;2022-12-07T05:57:41;43.67;;;28.80;;
9720;SDS011;4899;42.644;23.366;2022-12-07T06:00:26;40.90;;;28.30;;
9720;SDS011;4899;42.644;23.366;2022-12-07T06:02:52;47.53;;;31.20;;
9720;SDS011;4899;42.644;23.366;2022-12-07T06:05:17;37.07;;;27.93;;
9720;SDS011;4899;42.644;23.366;2022-12-07T06:07:42;45.80;;;30.57;;
9720;SDS011;4899;42.644;23.366;2022-12-07T06:10:08;43.23;;;30.50;;
9720;SDS011;4899;42.644;23.366;2022-12-07T06:12:34;47.50;;;30.80;;
9720;SDS011;4899;42.644;23.366;2022-12-07T06:14:59;44.33;;;29.33;;
9720;SDS011;4899;42.644;23.366;2022-12-07T06:17:25;40.27;;;27.87;;
9720;SDS011;4899;42.644;23.366;2022-12-07T06:19:50;38.60;;;28.80;;
9720;SDS011;4899;42.644;23.366;2022-12-07T06:22:16;38.47;;;28.03;;
9720;SDS011;4899;42.644;23.366;2022-12-07T06:24:43;46.40;;;31.20;;
9720;SDS011;4899;42.644;23.366;2022-12-07T06:27:09;38.30;;;29.53;;
9720;SDS011;4899;42.644;23.366;2022-12-07T06:29:35;45.43;;;28.43;;
9720;SDS011;4899;42.644;23.366;2022-12-07T06:32:01;41.43;;;29.30;;
9720;SDS011;4899;42.644;23.366;2022-12-07T06:34:27;48.67;;;30.63;;
9720;SDS011;4899;42.644;23.366;2022-12-07T06:36:53;42.87;;;28.70;;
9720;SDS011;4899;42.644;23.366;2022-12-07T06:39:23;35.87;;;27.90;;
9720;SDS011;4899;42.644;23.366;2022-12-07T06:41:51;39.70;;;28.57;;
9720;SDS011;4899;42.644;23.366;2022-12-07T06:44:17;44.17;;;31.50;;
9720;SDS011;4899;42.644;23.366;2022-12-07T06:46:43;41.50;;;30.73;;
9720;SDS011;4899;42.644;23.366;2022-12-07T06:49:09;47.97;;;33.70;;
9720;SDS011;4899;42.644;23.366;2022-12-07T06:51:35;43.73;;;32.40;;
9720;SDS011;4899;42.644;23.366;2022-12-07T06:54:02;46.50;;;31.53;;
9720;SDS011;4899;42.644;23.366;2022-12-07T06:56:28;40.63;;;30.37;;
9720;SDS011;4899;42.644;23.366;2022-12-07T06:58:54;48.67;;;32.90;;
9720;SDS011;4899;42.644;23.366;2022-12-07T07:01:20;48.03;;;31.70;;
9720;SDS011;4899;42.644;23.366;2022-12-07T07:03:45;40.37;;;27.93;;
9720;SDS011;4899;42.644;23.366;2022-12-07T07:06:12;41.17;;;30.53;;
9720;SDS011;4899;42.644;23.366;2022-12-07T07:08:38;50.40;;;34.77;;
9720;SDS011;4899;42.644;23.366;2022-12-07T07:11:04;45.47;;;35.63;;
9720;SDS011;4899;42.644;23.366;2022-12-07T07:13:30;41.77;;;30.17;;
9720;SDS011;4899;42.644;23.366;2022-12-07T07:15:56;45.60;;;31.10;;
9720;SDS011;4899;42.644;23.366;2022-12-07T07:18:22;53.83;;;39.17;;
9720;SDS011;4899;42.644;23.366;2022-12-07T07:20:47;43.70;;;32.53;;
9720;SDS011;4899;42.644;23.366;2022-12-07T07:23:13;44.13;;;31.80;;
9720;SDS011;4899;42.644;23.366;2022-12-07T07:25:38;52.10;;;31.87;;
9720;SDS011;4899;42.644;23.366;2022-12-07T07:28:04;42.07;;;30.03;;
9720;SDS011;4899;42.644;23.366;2022-12-07T07:30:29;43.90;;;31.43;;
9720;SDS011;4899;42.644;23.366;2022-12-07T07:32:59;47.13;;;30.37;;
9720;SDS011;4899;42.644;23.366;2022-12-07T07:35:26;46.30;;;30.80;;
9720;SDS011;4899;42.644;23.366;2022-12-07T07:37:54;44.80;;;31.17;;
9720;SDS011;4899;42.644;23.366;2022-12-07T07:40:19;48.87;;;32.30;;
9720;SDS011;4899;42.644;23.366;2022-12-07T07:42:48;49.53;;;29.83;;
9720;SDS011;4899;42.644;23.366;2022-12-07T07:45:20;40.10;;;30.43;;
9720;SDS011;4899;42.644;23.366;2022-12-07T07:47:46;46.40;;;34.83;;
9720;SDS011;4899;42.644;23.366;2022-12-07T07:50:12;45.97;;;31.03;;
9720;SDS011;4899;42.644;23.366;2022-12-07T07:52:38;53.10;;;36.60;;
9720;SDS011;4899;42.644;23.366;2022-12-07T07:55:04;51.70;;;35.70;;
9720;SDS011;4899;42.644;23.366;2022-12-07T07:57:29;43.17;;;31.20;;
9720;SDS011;4899;42.644;23.366;2022-12-07T07:59:55;43.53;;;29.13;;
9720;SDS011;4899;42.644;23.366;2022-12-07T08:02:20;44.53;;;29.20;;
9720;SDS011;4899;42.644;23.366;2022-12-07T08:04:47;38.90;;;27.93;;
9720;SDS011;4899;42.644;23.366;2022-12-07T08:07:13;40.73;;;28.73;;
9720;SDS011;4899;42.644;23.366;2022-12-07T08:09:39;43.93;;;29.20;;
9720;SDS011;4899;42.644;23.366;2022-12-07T08:12:05;41.23;;;29.17;;
9720;SDS011;4899;42.644;23.366;2022-12-07T08:14:31;42.80;;;28.87;;
9720;SDS011;4899;42.644;23.366;2022-12-07T08:16:56;39.33;;;28.50;;
9720;SDS011;4899;42.644;23.366;2022-12-07T08:19:22;40.07;;;27.90;;
9720;SDS011;4899;42.644;23.366;2022-12-07T08:21:48;38.67;;;26.90;;
9720;SDS011;4899;42.644;23.366;2022-12-07T08:24:13;41.20;;;25.67;;
9720;SDS011;4899;42.644;23.366;2022-12-07T08:26:39;40.03;;;26.47;;
9720;SDS011;4899;42.644;23.366;2022-12-07T08:29:05;36.10;;;26.03;;
9720;SDS011;4899;42.644;23.366;2022-12-07T08:31:31;39.03;;;25.40;;
9720;SDS011;4899;42.644;23.366;2022-12-07T08:33:56;38.97;;;27.23;;
9720;SDS011;4899;42.644;23.366;2022-12-07T08:36:22;38.20;;;26.43;;
9720;SDS011;4899;42.644;23.366;2022-12-07T08:38:48;36.43;;;26.13;;
9720;SDS011;4899;42.644;23.366;2022-12-07T08:41:14;36.63;;;26.10;;
9720;SDS011;4899;42.644;23.366;2022-12-07T08:43:40;42.17;;;26.17;;
9720;SDS011;4899;42.644;23.366;2022-12-07T08:46:07;36.40;;;26.23;;
9720;SDS011;4899;42.644;23.366;2022-12-07T08:48:57;34.93;;;26.50;;
9720;SDS011;4899;42.644;23.366;2022-12-07T08:51:28;41.40;;;26.00;;
9720;SDS011;4899;42.644;23.366;2022-12-07T08:53:54;37.43;;;25.00;;
9720;SDS011;4899;42.644;23.366;2022-12-07T08:56:21;33.93;;;25.23;;
9720;SDS011;4899;42.644;23.366;2022-12-07T08:58:47;34.80;;;25.13;;
9720;SDS011;4899;42.644;23.366;2022-12-07T09:01:13;37.73;;;26.73;;
9720;SDS011;4899;42.644;23.366;2022-12-07T09:03:39;35.47;;;26.60;;
9720;SDS011;4899;42.644;23.366;2022-12-07T09:06:05;34.33;;;27.13;;
9720;SDS011;4899;42.644;23.366;2022-12-07T09:08:32;31.70;;;25.37;;
9720;SDS011;4899;42.644;23.366;2022-12-07T09:11:00;31.27;;;24.50;;
9720;SDS011;4899;42.644;23.366;2022-12-07T09:13:25;32.87;;;23.97;;
9720;SDS011;4899;42.644;23.366;2022-12-07T09:15:50;30.83;;;24.63;;
9720;SDS011;4899;42.644;23.366;2022-12-07T09:18:16;30.30;;;24.33;;
9720;SDS011;4899;42.644;23.366;2022-12-07T09:20:41;30.93;;;23.60;;
9720;SDS011;4899;42.644;23.366;2022-12-07T09:23:07;37.17;;;23.50;;
9720;SDS011;4899;42.644;23.366;2022-12-07T09:25:33;38.57;;;28.40;;
9720;SDS011;4899;42.644;23.366;2022-12-07T09:27:59;38.53;;;25.67;;
9720;SDS011;4899;42.644;23.366;2022-12-07T09:30:25;38.40;;;26.57;;
9720;SDS011;4899;42.644;23.366;2022-12-07T09:32:52;36.23;;;25.00;;
9720;SDS011;4899;42.644;23.366;2022-12-07T09:35:19;35.60;;;24.40;;
9720;SDS011;4899;42.644;23.366;2022-12-07T09:37:44;35.43;;;26.40;;
9720;SDS011;4899;42.644;23.366;2022-12-07T09:40:11;33.10;;;24.33;;
9720;SDS011;4899;42.644;23.366;2022-12-07T09:42:38;35.63;;;26.07;;
9720;SDS011;4899;42.644;23.366;2022-12-07T09:45:19;30.70;;;24.07;;
9720;SDS011;4899;42.644;23.366;2022-12-07T09:47:48;33.83;;;25.07;;
9720;SDS011;4899;42.644;23.366;2022-12-07T09:50:15;36.23;;;24.60;;
9720;SDS011;4899;42.644;23.366;2022-12-07T09:52:46;33.93;;;24.00;;
9720;SDS011;4899;42.644;23.366;2022-12-07T09:55:14;38.23;;;24.93;;
9720;SDS011;4899;42.644;23.366;2022-12-07T09:57:44;33.67;;;24.40;;
9720;SDS011;4899;42.644;23.366;2022-12-07T10:00:11;29.80;;;22.23;;
9720;SDS011;4899;42.644;23.366;2022-12-07T10:02:40;29.63;;;21.57;;
9720;SDS011;4899;42.644;23.366;2022-12-07T10:05:19;33.17;;;22.80;;
9720;SDS011;4899;42.644;23.366;2022-12-07T10:07:49;34.50;;;23.40;;
9720;SDS011;4899;42.644;23.366;2022-12-07T10:10:15;35.70;;;24.47;;
9720;SDS011;4899;42.644;23.366;2022-12-07T10:12:55;34.90;;;22.83;;
9720;SDS011;4899;42.644;23.366;2022-12-07T10:23:39;26.83;;;19.67;;
9720;SDS011;4899;42.644;23.366;2022-12-07T10:28:50;29.73;;;20.77;;
9720;SDS011;4899;42.644;23.366;2022-12-07T10:31:19;31.10;;;22.40;;
9720;SDS011;4899;42.644;23.366;2022-12-07T10:36:18;27.93;;;22.93;;
9720;SDS011;4899;42.644;23.366;2022-12-07T10:38:45;28.37;;;22.20;;
9720;SDS011;4899;42.644;23.366;2022-12-07T10:41:13;27.53;;;21.30;;
9720;SDS011;4899;42.644;23.366;2022-12-07T10:43:46;29.03;;;21.40;;
9720;SDS011;4899;42.644;23.366;2022-12-07T10:54:59;27.63;;;19.63;;
9720;SDS011;4899;42.644;23.366;2022-12-07T10:57:43;26.07;;;20.17;;
9720;SDS011;4899;42.644;23.366;2022-12-07T11:00:21;27.47;;;20.30;;
9720;SDS011;4899;42.644;23.366;2022-12-07T11:03:07;24.07;;;19.30;;
9720;SDS011;4899;42.644;23.366;2022-12-07T11:14:41;28.43;;;20.47;;
9720;SDS011;4899;42.644;23.366;2022-12-07T11:17:17;31.20;;;22.23;;
9720;SDS011;4899;42.644;23.366;2022-12-07T11:25:23;29.17;;;19.13;;
9720;SDS011;4899;42.644;23.366;2022-12-07T11:30:42;27.43;;;20.40;;
9720;SDS011;4899;42.644;23.366;2022-12-07T11:39:26;24.47;;;20.10;;
9720;SDS011;4899;42.644;23.366;2022-12-07T11:42:16;26.00;;;19.90;;
9720;SDS011;4899;42.644;23.366;2022-12-07T11:44:55;26.83;;;19.37;;
9720;SDS011;4899;42.644;23.366;2022-12-07T11:53:02;29.70;;;18.40;;
9720;SDS011;4899;42.644;23.366;2022-12-07T11:58:04;26.03;;;18.80;;
9720;SDS011;4899;42.644;23.366;2022-12-07T12:00:56;26.20;;;17.70;;
9720;SDS011;4899;42.644;23.366;2022-12-07T12:03:51;26.03;;;18.97;;
9720;SDS011;4899;42.644;23.366;2022-12-07T12:06:21;27.60;;;19.60;;
9720;SDS011;4899;42.644;23.366;2022-12-07T12:08:55;25.67;;;19.03;;
9720;SDS011;4899;42.644;23.366;2022-12-07T12:22:35;29.53;;;20.40;;
9720;SDS011;4899;42.644;23.366;2022-12-07T12:25:05;31.57;;;20.20;;
9720;SDS011;4899;42.644;23.366;2022-12-07T12:27:40;23.83;;;19.27;;
9720;SDS011;4899;42.644;23.366;2022-12-07T12:33:05;25.13;;;19.33;;
9720;SDS011;4899;42.644;23.366;2022-12-07T12:35:37;26.07;;;20.17;;
9720;SDS011;4899;42.644;23.366;2022-12-07T12:40:50;26.03;;;20.40;;
9720;SDS011;4899;42.644;23.366;2022-12-07T12:51:49;26.00;;;16.90;;
9720;SDS011;4899;42.644;23.366;2022-12-07T12:56:55;23.20;;;18.17;;
9720;SDS011;4899;42.644;23.366;2022-12-07T12:59:25;23.93;;;17.97;;
9720;SDS011;4899;42.644;23.366;2022-12-07T13:01:55;22.60;;;16.70;;
9720;SDS011;4899;42.644;23.366;2022-12-07T13:04:37;24.07;;;17.20;;
9720;SDS011;4899;42.644;23.366;2022-12-07T13:07:13;28.67;;;18.13;;
9720;SDS011;4899;42.644;23.366;2022-12-07T13:13:31;20.17;;;16.33;;
9720;SDS011;4899;42.644;23.366;2022-12-07T13:18:42;21.83;;;15.53;;
9720;SDS011;4899;42.644;23.366;2022-12-07T13:31:55;17.83;;;15.83;;
9720;SDS011;4899;42.644;23.366;2022-12-07T13:37:09;20.37;;;16.10;;
9720;SDS011;4899;42.644;23.366;2022-12-07T13:39:49;24.37;;;16.57;;
9720;SDS011;4899;42.644;23.366;2022-12-07T13:42:22;19.80;;;16.53;;
9720;SDS011;4899;42.644;23.366;2022-12-07T13:44:51;22.97;;;16.27;;
9720;SDS011;4899;42.644;23.366;2022-12-07T13:50:24;16.60;;;14.90;;
9720;SDS011;4899;42.644;23.366;2022-12-07T13:52:54;16.60;;;14.33;;
9720;SDS011;4899;42.644;23.366;2022-12-07T13:55:21;19.50;;;14.13;;
9720;SDS011;4899;42.644;23.366;2022-12-07T13:57:48;16.37;;;13.70;;
9720;SDS011;4899;42.644;23.366;2022-12-07T14:00:17;19.13;;;15.07;;
9720;SDS011;4899;42.644;23.366;2022-12-07T14:02:58;18.60;;;14.40;;
9720;SDS011;4899;42.644;23.366;2022-12-07T14:05:28;19.43;;;14.90;;
9720;SDS011;4899;42.644;23.366;2022-12-07T14:10:33;19.97;;;14.40;;
9720;SDS011;4899;42.644;23.366;2022-12-07T14:16:01;19.50;;;14.10;;
9720;SDS011;4899;42.644;23.366;2022-12-07T14:18:38;21.07;;;15.17;;
9720;SDS011;4899;42.644;23.366;2022-12-07T14:21:06;23.20;;;15.23;;
9720;SDS011;4899;42.644;23.366;2022-12-07T14:23:40;20.90;;;15.40;;
9720;SDS011;4899;42.644;23.366;2022-12-07T14:26:07;20.33;;;15.10;;
9720;SDS011;4899;42.644;23.366;2022-12-07T14:28:40;20.33;;;15.47;;
9720;SDS011;4899;42.644;23.366;2022-12-07T14:33:37;22.53;;;15.40;;
9720;SDS011;4899;42.644;23.366;2022-12-07T14:36:03;24.23;;;15.23;;
9720;SDS011;4899;42.644;23.366;2022-12-07T14:38:29;28.93;;;16.30;;
9720;SDS011;4899;42.644;23.366;2022-12-07T14:40:54;26.13;;;16.20;;
9720;SDS011;4899;42.644;23.366;2022-12-07T14:43:41;29.90;;;16.80;;
9720;SDS011;4899;42.644;23.366;2022-12-07T14:46:06;24.20;;;16.50;;
9720;SDS011;4899;42.644;23.366;2022-12-07T14:48:33;28.47;;;17.07;;
9720;SDS011;4899;42.644;23.366;2022-12-07T14:50:59;21.60;;;14.67;;
9720;SDS011;4899;42.644;23.366;2022-12-07T14:53:27;27.70;;;16.47;;
9720;SDS011;4899;42.644;23.366;2022-12-07T14:55:56;34.83;;;16.27;;
9720;SDS011;4899;42.644;23.366;2022-12-07T14:58:21;32.23;;;16.43;;
9720;SDS011;4899;42.644;23.366;2022-12-07T15:00:47;27.80;;;16.43;;
9720;SDS011;4899;42.644;23.366;2022-12-07T15:03:13;21.27;;;14.50;;
9720;SDS011;4899;42.644;23.366;2022-12-07T15:05:39;22.47;;;14.90;;
9720;SDS011;4899;42.644;23.366;2022-12-07T15:08:05;25.37;;;15.53;;
9720;SDS011;4899;42.644;23.366;2022-12-07T15:10:32;25.10;;;16.20;;
9720;SDS011;4899;42.644;23.366;2022-12-07T15:12:59;22.47;;;16.47;;
9720;SDS011;4899;42.644;23.366;2022-12-07T15:15:46;25.67;;;16.17;;
9720;SDS011;4899;42.644;23.366;2022-12-07T15:18:12;21.00;;;15.57;;
9720;SDS011;4899;42.644;23.366;2022-12-07T15:20:38;23.90;;;16.43;;
9720;SDS011;4899;42.644;23.366;2022-12-07T15:23:04;27.03;;;16.17;;
9720;SDS011;4899;42.644;23.366;2022-12-07T15:25:29;29.90;;;18.47;;
9720;SDS011;4899;42.644;23.366;2022-12-07T15:27:54;31.57;;;18.97;;
9720;SDS011;4899;42.644;23.366;2022-12-07T15:30:20;34.37;;;21.20;;
9720;SDS011;4899;42.644;23.366;2022-12-07T15:32:48;35.70;;;24.50;;
9720;SDS011;4899;42.644;23.366;2022-12-07T15:35:14;35.73;;;21.90;;
9720;SDS011;4899;42.644;23.366;2022-12-07T15:37:40;31.80;;;19.00;;
9720;SDS011;4899;42.644;23.366;2022-12-07T15:40:05;39.70;;;21.50;;
9720;SDS011;4899;42.644;23.366;2022-12-07T15:42:32;31.67;;;20.27;;
9720;SDS011;4899;42.644;23.366;2022-12-07T15:44:57;43.63;;;21.67;;
9720;SDS011;4899;42.644;23.366;2022-12-07T15:47:28;32.83;;;19.30;;
9720;SDS011;4899;42.644;23.366;2022-12-07T15:49:55;32.97;;;20.63;;
9720;SDS011;4899;42.644;23.366;2022-12-07T15:52:20;29.53;;;20.77;;
9720;SDS011;4899;42.644;23.366;2022-12-07T15:54:46;35.97;;;20.60;;
9720;SDS011;4899;42.644;23.366;2022-12-07T15:57:12;33.53;;;21.73;;
9720;SDS011;4899;42.644;23.366;2022-12-07T15:59:38;37.40;;;22.80;;
9720;SDS011;4899;42.644;23.366;2022-12-07T16:02:03;39.57;;;22.20;;
9720;SDS011;4899;42.644;23.366;2022-12-07T16:04:29;30.57;;;19.73;;
9720;SDS011;4899;42.644;23.366;2022-12-07T16:06:54;23.83;;;19.70;;
9720;SDS011;4899;42.644;23.366;2022-12-07T16:09:21;33.10;;;21.10;;
9720;SDS011;4899;42.644;23.366;2022-12-07T16:11:47;31.07;;;20.63;;
9720;SDS011;4899;42.644;23.366;2022-12-07T16:14:12;30.57;;;17.83;;
9720;SDS011;4899;42.644;23.366;2022-12-07T16:16:38;26.87;;;20.27;;
9720;SDS011;4899;42.644;23.366;2022-12-07T16:19:05;31.47;;;21.23;;
9720;SDS011;4899;42.644;23.366;2022-12-07T16:21:31;30.13;;;20.30;;
9720;SDS011;4899;42.644;23.366;2022-12-07T16:23:59;33.00;;;20.07;;
9720;SDS011;4899;42.644;23.366;2022-12-07T16:26:25;28.03;;;18.53;;
9720;SDS011;4899;42.644;23.366;2022-12-07T16:28:51;35.93;;;19.73;;
9720;SDS011;4899;42.644;23.366;2022-12-07T16:31:19;37.90;;;20.07;;
9720;SDS011;4899;42.644;23.366;2022-12-07T16:33:46;32.63;;;19.90;;
9720;SDS011;4899;42.644;23.366;2022-12-07T16:36:12;30.37;;;19.70;;
9720;SDS011;4899;42.644;23.366;2022-12-07T16:38:41;27.90;;;19.57;;
9720;SDS011;4899;42.644;23.366;2022-12-07T16:41:07;29.70;;;19.67;;
9720;SDS011;4899;42.644;23.366;2022-12-07T16:43:34;30.23;;;19.97;;
9720;SDS011;4899;42.644;23.366;2022-12-07T16:46:00;32.77;;;21.77;;
9720;SDS011;4899;42.644;23.366;2022-12-07T16:48:26;32.90;;;24.00;;
9720;SDS011;4899;42.644;23.366;2022-12-07T16:50:51;50.60;;;31.20;;
9720;SDS011;4899;42.644;23.366;2022-12-07T16:53:18;26.77;;;20.47;;
9720;SDS011;4899;42.644;23.366;2022-12-07T16:55:45;45.33;;;26.13;;
9720;SDS011;4899;42.644;23.366;2022-12-07T16:58:11;31.77;;;23.13;;
9720;SDS011;4899;42.644;23.366;2022-12-07T17:00:38;36.00;;;23.60;;
9720;SDS011;4899;42.644;23.366;2022-12-07T17:03:04;39.50;;;22.70;;
9720;SDS011;4899;42.644;23.366;2022-12-07T17:05:29;42.50;;;26.60;;